CheckWX is a tool to help pilots better visualize weather data.  It is not intended as a substitute for an official pre-flight weather briefing.

07:05:15 UTC

KLGB TAF
Long Beach / Daugherty Field / Airport
Long Beach, California, USA
KLGB 210522Z 2106/2206 VRB03KT P6SM SKC FM211900 20007KT P6SM SKC FM212300 29009KT P6SM SKC FM220400 VRB03KT P6SM SKC

Sep-21@
06:00 UTC

Sep-21 @ 06:00 UTC

Sep-21@
19:00 UTC

Sep-21 @ 19:00 UTC

KLGB 210522Z 2106/2206 VRB03KT P6SM SKC
Wind
  • Variable at 3 KTS
Cloud Levels
  • Clear skies

Sep-21@
19:00 UTC

Sep-21 @ 19:00 UTC

Sep-21@
23:00 UTC

Sep-21 @ 23:00 UTC

FM211900 20007KT P6SM SKC

From

From Standard forecast or significant change

Wind
  • 200° at 7 KTS
Cloud Levels
  • Clear skies

Sep-21@
23:00 UTC

Sep-21 @ 23:00 UTC

Sep-22@
04:00 UTC

Sep-22 @ 04:00 UTC

FM212300 29009KT P6SM SKC

From

From Standard forecast or significant change

Wind
  • 290° at 9 KTS
Cloud Levels
  • Clear skies

Sep-22@
04:00 UTC

Sep-22 @ 04:00 UTC

Sep-22@
06:00 UTC

Sep-22 @ 06:00 UTC

FM220400 VRB03KT P6SM SKC

From

From Standard forecast or significant change

Wind
  • Variable at 3 KTS
Cloud Levels
  • Clear skies